Time;durP1;ratioP1;P1;durP2;ratioP2;P2;SDS_P1;SDS_P2;PMS_P1;PMS_P2;Temp;Humidity;BMP_temperature;BMP_pressure;BME280_temperature;BME280_humidity;BME280_pressure;Samples;Min_cycle;Max_cycle;Signal;HPM_P1;HPM_P2
2023/08/19 00:00:50;;;;;;;5.33;3.73;;;;;;;;;;5114099;28;20202;-76
2023/08/19 00:03:17;;;;;;;3.80;3.50;;;;;;;;;;5114838;28;20615;-76
2023/08/19 00:05:43;;;;;;;5.10;3.57;;;;;;;;;;5114590;28;20202;-76
2023/08/19 00:08:10;;;;;;;3.50;3.20;;;;;;;;;;5114822;28;20606;-75
2023/08/19 00:10:37;;;;;;;4.20;3.60;;;;;;;;;;5114283;28;20199;-75
2023/08/19 00:13:05;;;;;;;3.83;3.53;;;;;;;;;;5114398;28;20206;-76
2023/08/19 00:15:32;;;;;;;8.63;3.83;;;;;;;;;;5114217;28;20670;-76
2023/08/19 00:18:00;;;;;;;3.33;3.13;;;;;;;;;;5114104;28;20195;-76
2023/08/19 00:20:28;;;;;;;5.50;3.47;;;;;;;;;;5114209;28;20203;-76
2023/08/19 00:22:56;;;;;;;4.23;3.93;;;;;;;;;;5113994;28;20191;-75
2023/08/19 00:25:23;;;;;;;5.70;3.73;;;;;;;;;;5113854;28;20242;-76
2023/08/19 00:27:50;;;;;;;3.83;3.53;;;;;;;;;;5114413;28;20553;-76
2023/08/19 00:30:18;;;;;;;3.73;3.20;;;;;;;;;;5113823;28;20187;-76
2023/08/19 00:32:45;;;;;;;4.30;3.87;;;;;;;;;;5114215;28;20219;-76
2023/08/19 00:35:12;;;;;;;3.50;3.20;;;;;;;;;;5113753;28;20226;-76
2023/08/19 00:37:38;;;;;;;3.50;3.30;;;;;;;;;;5114027;28;20198;-76
2023/08/19 00:40:06;;;;;;;6.20;3.03;;;;;;;;;;5113528;28;20573;-75
2023/08/19 00:42:33;;;;;;;4.40;3.50;;;;;;;;;;5109769;28;20231;-76
2023/08/19 00:45:00;;;;;;;3.97;3.67;;;;;;;;;;5093065;28;20206;-76
2023/08/19 00:47:30;;;;;;;9.03;3.80;;;;;;;;;;5093685;28;20261;-76
2023/08/19 00:49:57;;;;;;;4.90;3.90;;;;;;;;;;5093130;28;20192;-76
2023/08/19 00:52:24;;;;;;;4.57;3.67;;;;;;;;;;5092869;28;20212;-76
2023/08/19 00:54:51;;;;;;;3.63;3.33;;;;;;;;;;5093356;28;20227;-76
2023/08/19 00:57:17;;;;;;;4.10;3.77;;;;;;;;;;5092886;28;20685;-76
2023/08/19 00:59:45;;;;;;;4.37;3.17;;;;;;;;;;5092992;28;20195;-75
2023/08/19 01:02:12;;;;;;;4.20;3.60;;;;;;;;;;5093424;28;20223;-76
2023/08/19 01:04:40;;;;;;;4.90;3.50;;;;;;;;;;5093023;28;20208;-76
2023/08/19 01:07:13;;;;;;;3.57;3.30;;;;;;;;;;5092793;28;20200;-76
2023/08/19 01:09:46;;;;;;;5.33;4.23;;;;;;;;;;5093151;28;20196;-76
2023/08/19 01:12:17;;;;;;;5.27;3.90;;;;;;;;;;5091549;28;20697;-76
2023/08/19 01:14:51;;;;;;;4.43;4.13;;;;;;;;;;5092931;28;20208;-76
2023/08/19 01:17:20;;;;;;;4.73;4.33;;;;;;;;;;5093173;28;20230;-76
2023/08/19 01:19:49;;;;;;;3.80;3.37;;;;;;;;;;5092752;28;20200;-76
2023/08/19 01:22:18;;;;;;;4.73;4.27;;;;;;;;;;5092668;28;20197;-76
2023/08/19 01:24:47;;;;;;;4.37;3.63;;;;;;;;;;5092982;28;20219;-76
2023/08/19 01:27:24;;;;;;;4.43;3.63;;;;;;;;;;5093026;28;20200;-76
2023/08/19 01:29:51;;;;;;;5.27;3.43;;;;;;;;;;5092907;28;20623;-76
2023/08/19 01:32:20;;;;;;;3.77;3.33;;;;;;;;;;5092216;28;20220;-76
2023/08/19 01:34:47;;;;;;;3.83;3.53;;;;;;;;;;5092268;28;20561;-76
2023/08/19 01:37:19;;;;;;;4.23;3.93;;;;;;;;;;5092590;28;20195;-76
2023/08/19 01:39:47;;;;;;;4.30;3.90;;;;;;;;;;5092186;28;20192;-76
2023/08/19 01:42:15;;;;;;;4.50;4.10;;;;;;;;;;5092534;28;20231;-76
2023/08/19 01:44:42;;;;;;;4.20;3.80;;;;;;;;;;5092168;28;20207;-76
2023/08/19 01:47:13;;;;;;;4.57;3.83;;;;;;;;;;5092335;28;20199;-76
2023/08/19 01:49:40;;;;;;;10.00;5.20;;;;;;;;;;5093059;28;20604;-76
2023/08/19 01:52:06;;;;;;;8.87;4.40;;;;;;;;;;5092156;28;20223;-76
2023/08/19 01:54:33;;;;;;;4.17;3.80;;;;;;;;;;5102575;28;20219;-76
2023/08/19 01:57:01;;;;;;;6.90;4.17;;;;;;;;;;5112232;28;20195;-76
2023/08/19 01:59:28;;;;;;;4.10;3.67;;;;;;;;;;5112492;28;20207;-76
2023/08/19 02:01:55;;;;;;;3.73;3.33;;;;;;;;;;5112228;28;20195;-76
2023/08/19 02:04:22;;;;;;;4.67;3.87;;;;;;;;;;5112179;28;20199;-76
2023/08/19 02:06:48;;;;;;;4.07;3.77;;;;;;;;;;5112147;28;20662;-76
2023/08/19 02:09:15;;;;;;;4.53;3.70;;;;;;;;;;5112159;28;20665;-76
2023/08/19 02:11:42;;;;;;;4.07;3.77;;;;;;;;;;5111971;28;20215;-76
2023/08/19 02:14:10;;;;;;;8.93;4.20;;;;;;;;;;5112881;28;20637;-76
2023/08/19 02:16:37;;;;;;;5.07;4.10;;;;;;;;;;5112911;28;20199;-76
2023/08/19 02:19:05;;;;;;;6.47;4.03;;;;;;;;;;5112005;28;20199;-76
2023/08/19 02:21:31;;;;;;;5.77;4.00;;;;;;;;;;5113126;28;20282;-76
2023/08/19 02:23:58;;;;;;;4.70;3.40;;;;;;;;;;5113484;28;20191;-76
2023/08/19 02:26:25;;;;;;;6.00;3.80;;;;;;;;;;5114158;28;20218;-76
2023/08/19 02:28:52;;;;;;;3.80;3.50;;;;;;;;;;5095774;28;20203;-76
2023/08/19 02:31:20;;;;;;;3.10;2.90;;;;;;;;;;5095774;28;20200;-76
2023/08/19 02:33:47;;;;;;;4.27;3.50;;;;;;;;;;5096076;28;20219;-76
2023/08/19 02:36:14;;;;;;;4.53;3.37;;;;;;;;;;5095583;28;20189;-76
2023/08/19 02:38:41;;;;;;;4.53;3.90;;;;;;;;;;5095535;28;20238;-76
2023/08/19 02:41:07;;;;;;;5.37;4.20;;;;;;;;;;5095985;28;20207;-76
2023/08/19 02:43:34;;;;;;;4.30;3.80;;;;;;;;;;5094422;28;20710;-76
2023/08/19 02:46:02;;;;;;;4.00;3.60;;;;;;;;;;5095879;28;20192;-76
2023/08/19 02:48:30;;;;;;;7.20;4.13;;;;;;;;;;5093896;28;20261;-76
2023/08/19 02:50:57;;;;;;;3.97;3.67;;;;;;;;;;5095158;28;20619;-76
2023/08/19 02:53:24;;;;;;;3.97;3.37;;;;;;;;;;5096172;28;20232;-76
2023/08/19 02:55:52;;;;;;;4.83;3.53;;;;;;;;;;5095272;28;20204;-76
2023/08/19 02:58:19;;;;;;;3.33;3.13;;;;;;;;;;5095292;28;20577;-76
2023/08/19 03:00:47;;;;;;;2.93;2.63;;;;;;;;;;5093884;28;20207;-76
2023/08/19 03:03:14;;;;;;;3.63;3.33;;;;;;;;;;5094997;28;20662;-76
2023/08/19 03:05:42;;;;;;;6.17;3.53;;;;;;;;;;5100905;28;20202;-76
2023/08/19 03:08:10;;;;;;;3.53;3.10;;;;;;;;;;5114106;28;20203;-76
2023/08/19 03:10:37;;;;;;;3.53;3.20;;;;;;;;;;5115928;28;20196;-76
2023/08/19 03:13:04;;;;;;;9.10;3.67;;;;;;;;;;5105611;28;20241;-76
2023/08/19 03:15:32;;;;;;;4.77;3.87;;;;;;;;;;5106652;28;20196;-76
2023/08/19 03:17:58;;;;;;;4.40;4.00;;;;;;;;;;5115209;28;20191;-76
2023/08/19 03:20:25;;;;;;;6.57;4.23;;;;;;;;;;5115201;28;20199;-75
2023/08/19 03:22:53;;;;;;;5.10;4.17;;;;;;;;;;5115381;28;20199;-75
2023/08/19 03:25:20;;;;;;;6.07;3.57;;;;;;;;;;5115523;28;20195;-76
2023/08/19 03:27:47;;;;;;;4.20;3.80;;;;;;;;;;5115485;28;20199;-76
2023/08/19 03:30:14;;;;;;;4.17;3.77;;;;;;;;;;5114942;28;20195;-77
2023/08/19 03:32:41;;;;;;;5.63;3.83;;;;;;;;;;5114909;28;20223;-76
2023/08/19 03:35:08;;;;;;;5.47;4.27;;;;;;;;;;5113710;28;20578;-76
2023/08/19 03:37:35;;;;;;;4.07;3.13;;;;;;;;;;5115085;28;20203;-76
2023/08/19 03:40:04;;;;;;;4.53;3.63;;;;;;;;;;5115111;28;20221;-76
2023/08/19 03:42:31;;;;;;;3.60;3.30;;;;;;;;;;5114663;28;20742;-76
2023/08/19 03:44:57;;;;;;;5.13;3.43;;;;;;;;;;5114668;28;20203;-76
2023/08/19 03:47:24;;;;;;;3.40;3.10;;;;;;;;;;5114698;28;20192;-76
2023/08/19 03:49:51;;;;;;;4.40;2.90;;;;;;;;;;5114895;28;20207;-76
2023/08/19 03:52:18;;;;;;;3.30;2.97;;;;;;;;;;5114514;28;20219;-76
2023/08/19 03:54:44;;;;;;;3.60;3.30;;;;;;;;;;5114889;28;20231;-76
2023/08/19 03:57:12;;;;;;;7.13;3.60;;;;;;;;;;5114767;28;20195;-76
2023/08/19 03:59:39;;;;;;;5.20;4.23;;;;;;;;;;5112966;28;20684;-76
2023/08/19 04:02:06;;;;;;;4.30;3.90;;;;;;;;;;5101317;28;20582;-76
2023/08/19 04:04:36;;;;;;;3.80;3.30;;;;;;;;;;5094579;28;20196;-76
2023/08/19 04:07:03;;;;;;;6.23;3.97;;;;;;;;;;5094456;28;20199;-76
2023/08/19 04:09:30;;;;;;;5.80;3.60;;;;;;;;;;5094166;28;20219;-76
2023/08/19 04:11:57;;;;;;;4.53;4.20;;;;;;;;;;5100272;28;20203;-76
2023/08/19 04:14:25;;;;;;;4.23;3.83;;;;;;;;;;5102119;28;20613;-76
2023/08/19 04:16:52;;;;;;;5.63;5.13;;;;;;;;;;5108656;28;20199;-76
2023/08/19 04:19:18;;;;;;;9.97;9.07;;;;;;;;;;5112654;28;20572;-76
2023/08/19 04:21:45;;;;;;;5.23;4.70;;;;;;;;;;5114277;28;20195;-75
2023/08/19 04:24:12;;;;;;;4.30;4.00;;;;;;;;;;5113971;28;20207;-76
2023/08/19 04:26:39;;;;;;;4.77;4.37;;;;;;;;;;5114456;28;20222;-76
2023/08/19 04:29:06;;;;;;;4.30;4.00;;;;;;;;;;5113731;28;20195;-76
2023/08/19 04:31:34;;;;;;;5.57;4.07;;;;;;;;;;5113750;28;20191;-76
2023/08/19 04:34:00;;;;;;;4.60;4.03;;;;;;;;;;5113753;28;20223;-76
2023/08/19 04:36:27;;;;;;;18.83;15.47;;;;;;;;;;5113942;28;20192;-76
2023/08/19 04:38:54;;;;;;;6.93;6.33;;;;;;;;;;5114196;28;20603;-76
2023/08/19 04:41:21;;;;;;;6.93;6.33;;;;;;;;;;5113780;28;20207;-76
2023/08/19 04:43:47;;;;;;;8.37;7.77;;;;;;;;;;5113765;28;20191;-76
2023/08/19 04:46:14;;;;;;;5.23;4.17;;;;;;;;;;5114453;28;20191;-76
2023/08/19 04:48:42;;;;;;;4.40;4.00;;;;;;;;;;5113463;28;20686;-76
2023/08/19 04:51:09;;;;;;;4.30;4.00;;;;;;;;;;5112429;28;20188;-76
2023/08/19 04:53:36;;;;;;;4.20;3.87;;;;;;;;;;5113758;28;20242;-76
2023/08/19 04:56:03;;;;;;;4.27;3.97;;;;;;;;;;5113578;28;20191;-76
2023/08/19 04:58:30;;;;;;;4.77;4.37;;;;;;;;;;5113621;28;20197;-76
2023/08/19 05:00:57;;;;;;;5.97;3.97;;;;;;;;;;5113457;28;20203;-75
2023/08/19 05:03:24;;;;;;;5.77;4.17;;;;;;;;;;5113074;28;20203;-76
2023/08/19 05:05:52;;;;;;;4.57;4.10;;;;;;;;;;5103070;28;20208;-76
2023/08/19 05:08:19;;;;;;;4.73;3.80;;;;;;;;;;5093341;28;20192;-76
2023/08/19 05:10:46;;;;;;;4.83;3.47;;;;;;;;;;5093671;28;20615;-76
2023/08/19 05:13:12;;;;;;;3.90;3.60;;;;;;;;;;5092543;28;20310;-76
2023/08/19 05:15:39;;;;;;;4.03;3.40;;;;;;;;;;5091483;28;20257;-76
2023/08/19 05:18:06;;;;;;;4.73;3.40;;;;;;;;;;5106304;28;20604;-76
2023/08/19 05:20:33;;;;;;;3.67;3.37;;;;;;;;;;5092753;28;20232;-76
2023/08/19 05:23:01;;;;;;;3.77;3.40;;;;;;;;;;5092670;28;20200;-76
2023/08/19 05:25:29;;;;;;;4.37;3.93;;;;;;;;;;5100224;28;20191;-76
2023/08/19 05:27:56;;;;;;;6.30;3.80;;;;;;;;;;5112738;28;20206;-76
2023/08/19 05:30:23;;;;;;;4.20;3.90;;;;;;;;;;5113342;28;20192;-76
2023/08/19 05:32:50;;;;;;;4.63;3.60;;;;;;;;;;5112619;28;20690;-76
2023/08/19 05:35:17;;;;;;;3.57;3.27;;;;;;;;;;5112909;28;20199;-76
2023/08/19 05:37:43;;;;;;;3.33;3.03;;;;;;;;;;5113216;28;20196;-76
2023/08/19 05:40:12;;;;;;;3.80;3.00;;;;;;;;;;5112901;28;20199;-76
2023/08/19 05:42:39;;;;;;;5.20;3.17;;;;;;;;;;5110892;28;20199;-76
2023/08/19 05:45:06;;;;;;;4.13;2.90;;;;;;;;;;5110761;28;20654;-78
2023/08/19 05:47:33;;;;;;;3.07;2.87;;;;;;;;;;5111989;28;20211;-77
2023/08/19 05:50:00;;;;;;;4.43;2.97;;;;;;;;;;5112676;28;20735;-77
2023/08/19 05:52:27;;;;;;;3.47;3.17;;;;;;;;;;5091175;28;20677;-76
2023/08/19 05:54:53;;;;;;;4.20;3.20;;;;;;;;;;5092198;28;20273;-77
2023/08/19 05:57:21;;;;;;;3.57;3.27;;;;;;;;;;5091964;28;20200;-76
2023/08/19 05:59:48;;;;;;;5.10;3.00;;;;;;;;;;5091884;28;20200;-77
2023/08/19 06:02:15;;;;;;;3.20;2.90;;;;;;;;;;5091951;28;20203;-78
2023/08/19 06:04:42;;;;;;;6.00;3.60;;;;;;;;;;5091833;28;20204;-78
2023/08/19 06:07:09;;;;;;;3.67;3.40;;;;;;;;;;5091698;28;20241;-78
2023/08/19 06:09:36;;;;;;;2.87;2.70;;;;;;;;;;5092523;28;20196;-78
2023/08/19 06:12:03;;;;;;;6.50;3.57;;;;;;;;;;5091750;28;20211;-78
2023/08/19 06:14:31;;;;;;;4.07;3.77;;;;;;;;;;5091500;28;20224;-78
2023/08/19 06:16:58;;;;;;;3.50;3.20;;;;;;;;;;5091791;28;20196;-78
2023/08/19 06:19:25;;;;;;;6.57;3.73;;;;;;;;;;5073708;28;20717;-78
2023/08/19 06:21:53;;;;;;;7.63;3.70;;;;;;;;;;5091819;28;20204;-78
2023/08/19 06:24:20;;;;;;;3.83;3.43;;;;;;;;;;5092057;28;20200;-78
2023/08/19 06:26:47;;;;;;;6.63;3.73;;;;;;;;;;5095318;28;20198;-78
2023/08/19 06:29:14;;;;;;;7.50;3.33;;;;;;;;;;5102819;28;20196;-78
2023/08/19 06:31:43;;;;;;;4.43;4.03;;;;;;;;;;5091513;28;20203;-78
2023/08/19 06:34:10;;;;;;;3.70;3.40;;;;;;;;;;5091302;28;20637;-78
2023/08/19 06:36:38;;;;;;;6.97;3.53;;;;;;;;;;5091517;28;20224;-78
2023/08/19 06:39:08;;;;;;;4.63;4.00;;;;;;;;;;5091504;28;20210;-78
2023/08/19 06:41:36;;;;;;;3.93;3.57;;;;;;;;;;5091693;28;20200;-78
2023/08/19 06:44:05;;;;;;;4.17;3.20;;;;;;;;;;5091549;28;20292;-77
2023/08/19 06:46:32;;;;;;;4.00;3.70;;;;;;;;;;5091392;28;20283;-78
2023/08/19 06:49:01;;;;;;;7.63;3.60;;;;;;;;;;5091787;28;20223;-78
2023/08/19 06:51:30;;;;;;;6.53;3.00;;;;;;;;;;5091423;28;20200;-77
2023/08/19 06:53:57;;;;;;;8.70;3.77;;;;;;;;;;5091662;28;20236;-78
2023/08/19 06:56:30;;;;;;;5.27;3.60;;;;;;;;;;5091454;28;20197;-78
2023/08/19 06:59:04;;;;;;;3.70;3.13;;;;;;;;;;5091378;28;20670;-78
2023/08/19 07:01:32;;;;;;;3.57;3.27;;;;;;;;;;5089899;28;20192;-78
2023/08/19 07:03:59;;;;;;;4.20;2.90;;;;;;;;;;5073621;28;20192;-79
2023/08/19 07:06:30;;;;;;;3.72;3.13;;;;;;;;;;5091697;28;20205;-78
2023/08/19 07:08:58;;;;;;;3.70;3.30;;;;;;;;;;5091197;28;20670;-78
2023/08/19 07:11:25;;;;;;;6.97;3.73;;;;;;;;;;5094742;28;20287;-78
2023/08/19 07:13:52;;;;;;;8.82;4.18;;;;;;;;;;5095537;28;20230;-77
2023/08/19 07:16:22;;;;;;;8.63;3.78;;;;;;;;;;5095363;28;20226;-78
2023/08/19 07:18:49;;;;;;;4.18;3.25;;;;;;;;;;5094770;28;20220;-77
2023/08/19 07:21:17;;;;;;;4.53;3.05;;;;;;;;;;5094937;28;20204;-78
2023/08/19 07:23:46;;;;;;;3.28;3.00;;;;;;;;;;5095610;28;20204;-78
2023/08/19 07:26:13;;;;;;;7.15;3.15;;;;;;;;;;5094882;28;20202;-78
2023/08/19 07:28:41;;;;;;;4.43;3.80;;;;;;;;;;5101436;28;20192;-77
2023/08/19 07:31:10;;;;;;;5.03;3.13;;;;;;;;;;5115127;28;20210;-78
2023/08/19 07:33:37;;;;;;;5.10;3.63;;;;;;;;;;5113510;28;20641;-78
2023/08/19 07:36:07;;;;;;;3.42;3.20;;;;;;;;;;5113395;28;20244;-78
2023/08/19 07:38:34;;;;;;;5.82;3.17;;;;;;;;;;5115885;28;20195;-78
2023/08/19 07:41:02;;;;;;;7.43;3.45;;;;;;;;;;5114344;28;20196;-78
2023/08/19 07:43:30;;;;;;;3.55;3.25;;;;;;;;;;5113744;28;20213;-77
2023/08/19 07:45:56;;;;;;;2.63;2.42;;;;;;;;;;5114730;28;20192;-77
2023/08/19 07:48:23;;;;;;;3.10;2.90;;;;;;;;;;5114575;28;20191;-83
2023/08/19 07:50:50;;;;;;;3.10;2.75;;;;;;;;;;5114799;28;20565;-78
2023/08/19 07:53:17;;;;;;;5.20;2.70;;;;;;;;;;5114836;28;20219;-77
2023/08/19 07:55:44;;;;;;;3.35;2.70;;;;;;;;;;5114524;28;20207;-78
2023/08/19 07:58:12;;;;;;;3.28;2.70;;;;;;;;;;5114901;28;20214;-78
2023/08/19 08:00:39;;;;;;;6.03;2.92;;;;;;;;;;5114728;28;20210;-78
2023/08/19 08:03:06;;;;;;;5.15;3.20;;;;;;;;;;5112835;28;20252;-78
2023/08/19 08:05:33;;;;;;;3.67;2.78;;;;;;;;;;5114040;28;20206;-78
2023/08/19 08:08:00;;;;;;;3.33;3.03;;;;;;;;;;5113227;28;20200;-78
2023/08/19 08:10:27;;;;;;;4.05;2.70;;;;;;;;;;5113613;28;20187;-78
2023/08/19 08:12:54;;;;;;;6.47;3.60;;;;;;;;;;5106844;28;20215;-78
2023/08/19 08:15:22;;;;;;;3.97;2.90;;;;;;;;;;5109709;28;20234;-78
2023/08/19 08:17:48;;;;;;;9.13;4.18;;;;;;;;;;5108037;28;20203;-78
2023/08/19 08:20:16;;;;;;;3.80;3.00;;;;;;;;;;5104444;28;20191;-78
2023/08/19 08:22:43;;;;;;;4.32;3.00;;;;;;;;;;5110424;28;20282;-78
2023/08/19 08:25:10;;;;;;;10.65;4.13;;;;;;;;;;5093329;28;20197;-77
2023/08/19 08:27:37;;;;;;;6.53;3.70;;;;;;;;;;5092884;28;20249;-78
2023/08/19 08:30:05;;;;;;;6.57;5.18;;;;;;;;;;5093427;28;20199;-78
2023/08/19 08:32:33;;;;;;;5.53;3.97;;;;;;;;;;5092616;28;20197;-78
2023/08/19 08:35:00;;;;;;;3.80;3.35;;;;;;;;;;5112222;28;20226;-78
2023/08/19 08:37:27;;;;;;;3.88;3.53;;;;;;;;;;5112554;28;20195;-78
2023/08/19 08:39:54;;;;;;;4.35;3.53;;;;;;;;;;5113077;28;20199;-78
2023/08/19 08:42:22;;;;;;;4.63;3.50;;;;;;;;;;5112999;28;20202;-78
2023/08/19 08:44:49;;;;;;;3.80;3.40;;;;;;;;;;5105885;28;20673;-77
2023/08/19 08:47:17;;;;;;;5.40;3.40;;;;;;;;;;5112862;28;20192;-78
2023/08/19 08:49:47;;;;;;;7.07;3.57;;;;;;;;;;5113469;28;20196;-77
2023/08/19 08:52:14;;;;;;;4.43;4.03;;;;;;;;;;5112670;28;20249;-79
2023/08/19 08:54:43;;;;;;;5.10;4.03;;;;;;;;;;5100336;28;20228;-78
2023/08/19 08:57:10;;;;;;;7.65;3.65;;;;;;;;;;5093148;28;20207;-78
2023/08/19 08:59:37;;;;;;;4.78;3.30;;;;;;;;;;5109708;28;20573;-78
2023/08/19 09:02:04;;;;;;;9.35;3.65;;;;;;;;;;5109049;28;21026;-78
2023/08/19 09:04:31;;;;;;;3.53;3.05;;;;;;;;;;5092894;28;20196;-78
2023/08/19 09:07:07;;;;;;;3.47;3.17;;;;;;;;;;5091771;28;20678;-78
2023/08/19 09:09:35;;;;;;;5.20;3.08;;;;;;;;;;5105385;28;20195;-78
2023/08/19 09:12:05;;;;;;;3.15;2.85;;;;;;;;;;5112369;28;20283;-78
2023/08/19 09:14:36;;;;;;;3.60;3.30;;;;;;;;;;5104277;28;20219;-78
2023/08/19 09:17:03;;;;;;;4.93;3.30;;;;;;;;;;5113624;28;20565;-78
2023/08/19 09:19:30;;;;;;;3.55;3.25;;;;;;;;;;5107983;28;20752;-78
2023/08/19 09:21:57;;;;;;;3.63;3.22;;;;;;;;;;5113185;28;20574;-78
2023/08/19 09:24:25;;;;;;;4.20;3.80;;;;;;;;;;5111488;28;20199;-78
2023/08/19 09:26:56;;;;;;;7.32;3.78;;;;;;;;;;5112193;28;20195;-78
2023/08/19 09:29:23;;;;;;;9.93;3.65;;;;;;;;;;5112758;28;20231;-78
2023/08/19 09:31:53;;;;;;;4.07;3.78;;;;;;;;;;5092824;28;20207;-78
2023/08/19 09:34:20;;;;;;;6.38;4.00;;;;;;;;;;5110216;28;20221;-78
2023/08/19 09:36:48;;;;;;;3.95;3.60;;;;;;;;;;5112647;28;20205;-78
2023/08/19 09:39:15;;;;;;;4.22;3.83;;;;;;;;;;5113623;28;20203;-78
2023/08/19 09:41:43;;;;;;;3.97;3.58;;;;;;;;;;5112603;28;20680;-78
2023/08/19 09:44:13;;;;;;;4.30;3.20;;;;;;;;;;5112418;28;20208;-78
2023/08/19 09:46:41;;;;;;;3.85;3.55;;;;;;;;;;5106648;28;20200;-78
2023/08/19 09:49:08;;;;;;;6.18;4.22;;;;;;;;;;5092365;28;20275;-78
2023/08/19 09:51:35;;;;;;;5.93;5.18;;;;;;;;;;5092266;28;20197;-78
2023/08/19 09:54:09;;;;;;;5.50;4.88;;;;;;;;;;5092073;28;20223;-78
2023/08/19 09:56:35;;;;;;;8.82;5.60;;;;;;;;;;5090392;28;20199;-79
2023/08/19 09:59:04;;;;;;;8.45;6.68;;;;;;;;;;5091929;28;20204;-78
2023/08/19 10:01:32;;;;;;;8.75;3.92;;;;;;;;;;5092126;28;20207;-78
2023/08/19 10:03:59;;;;;;;3.83;3.47;;;;;;;;;;5091916;28;20708;-78
2023/08/19 10:06:27;;;;;;;3.33;3.03;;;;;;;;;;5104010;28;20562;-78
2023/08/19 10:09:00;;;;;;;3.20;2.90;;;;;;;;;;5112286;28;20750;-78
2023/08/19 10:11:31;;;;;;;6.35;4.57;;;;;;;;;;5112651;28;20599;-78
2023/08/19 10:14:01;;;;;;;4.10;3.15;;;;;;;;;;5112108;28;20762;-78
2023/08/19 10:16:33;;;;;;;3.72;3.15;;;;;;;;;;5100563;28;20280;-78
2023/08/19 10:19:00;;;;;;;4.40;2.92;;;;;;;;;;5074695;28;20203;-78
2023/08/19 10:21:31;;;;;;;3.33;3.03;;;;;;;;;;5107717;28;20195;-78
2023/08/19 10:23:58;;;;;;;4.50;2.78;;;;;;;;;;5112000;28;20199;-78
2023/08/19 10:26:25;;;;;;;4.65;3.00;;;;;;;;;;5111989;28;20202;-78
2023/08/19 10:29:05;;;;;;;4.78;2.90;;;;;;;;;;5110346;28;20203;-78
2023/08/19 10:31:34;;;;;;;6.13;3.20;;;;;;;;;;5112062;28;20198;-78
2023/08/19 10:34:10;;;;;;;3.40;3.10;;;;;;;;;;5111663;28;20199;-79
2023/08/19 10:36:36;;;;;;;3.63;3.33;;;;;;;;;;5111845;28;20752;-78
2023/08/19 10:39:07;;;;;;;3.70;3.40;;;;;;;;;;5111725;28;20210;-78
2023/08/19 10:41:36;;;;;;;3.08;2.78;;;;;;;;;;5112279;28;20249;-78
2023/08/19 10:44:04;;;;;;;12.00;4.25;;;;;;;;;;5111107;28;20631;-77
2023/08/19 10:46:34;;;;;;;4.45;3.20;;;;;;;;;;5114871;28;20199;-78
2023/08/19 10:49:02;;;;;;;3.47;2.83;;;;;;;;;;5115077;28;20570;-78
2023/08/19 10:51:50;;;;;;;3.33;3.03;;;;;;;;;;5116140;28;20207;-79
2023/08/19 10:54:26;;;;;;;3.45;3.15;;;;;;;;;;5116328;28;20233;-78
2023/08/19 10:56:53;;;;;;;4.45;3.00;;;;;;;;;;5116281;28;20282;-78
2023/08/19 10:59:21;;;;;;;3.72;3.42;;;;;;;;;;5114498;28;20196;-78
2023/08/19 11:01:50;;;;;;;3.33;3.03;;;;;;;;;;5115737;28;20204;-77
2023/08/19 11:04:17;;;;;;;5.40;2.95;;;;;;;;;;5116159;28;20203;-77
2023/08/19 11:06:43;;;;;;;5.20;3.28;;;;;;;;;;5116107;28;20187;-78
2023/08/19 11:09:10;;;;;;;5.18;4.43;;;;;;;;;;5115703;28;20206;-78
2023/08/19 11:11:37;;;;;;;6.15;2.95;;;;;;;;;;5115916;28;20195;-78
2023/08/19 11:14:06;;;;;;;3.00;2.80;;;;;;;;;;5116279;28;20196;-78
2023/08/19 11:16:33;;;;;;;4.47;3.10;;;;;;;;;;5115193;28;20255;-78
2023/08/19 11:19:02;;;;;;;3.50;3.20;;;;;;;;;;5115320;28;20206;-78
2023/08/19 11:21:31;;;;;;;5.25;3.13;;;;;;;;;;5115733;28;20203;-78
2023/08/19 11:23:58;;;;;;;3.00;2.80;;;;;;;;;;5115289;28;20195;-78
2023/08/19 11:26:25;;;;;;;3.88;3.47;;;;;;;;;;5115538;28;20197;-77
2023/08/19 11:28:51;;;;;;;3.45;3.20;;;;;;;;;;5114964;28;20203;-78
2023/08/19 11:31:20;;;;;;;4.00;3.47;;;;;;;;;;5115653;28;20196;-78
2023/08/19 11:33:48;;;;;;;3.50;3.22;;;;;;;;;;5115058;28;20661;-78
2023/08/19 11:36:16;;;;;;;3.65;3.35;;;;;;;;;;5115759;28;20261;-78
2023/08/19 11:38:44;;;;;;;3.33;3.13;;;;;;;;;;5114916;28;20191;-78
2023/08/19 11:41:11;;;;;;;4.18;3.78;;;;;;;;;;5115179;28;20256;-78
2023/08/19 11:43:47;;;;;;;3.58;3.33;;;;;;;;;;5114767;28;20192;-78
2023/08/19 11:46:13;;;;;;;3.17;2.88;;;;;;;;;;5113180;28;20248;-78
2023/08/19 11:48:42;;;;;;;4.75;3.97;;;;;;;;;;5114780;28;20680;-78
2023/08/19 11:51:13;;;;;;;4.43;3.53;;;;;;;;;;5114689;28;20703;-78
2023/08/19 11:53:42;;;;;;;4.97;3.42;;;;;;;;;;5114860;28;20666;-78
2023/08/19 11:56:09;;;;;;;5.82;4.00;;;;;;;;;;5113785;28;20215;-78
2023/08/19 11:58:42;;;;;;;3.97;3.58;;;;;;;;;;5115383;28;20191;-78
2023/08/19 12:01:08;;;;;;;3.80;3.17;;;;;;;;;;5114440;28;20195;-78
2023/08/19 12:03:36;;;;;;;3.80;3.30;;;;;;;;;;5114459;28;20199;-78
2023/08/19 12:06:03;;;;;;;4.30;3.85;;;;;;;;;;5114555;28;20210;-78
2023/08/19 12:08:31;;;;;;;3.50;3.20;;;;;;;;;;5112929;28;20689;-78
2023/08/19 12:11:00;;;;;;;4.68;3.97;;;;;;;;;;5114268;28;20210;-78
2023/08/19 12:13:30;;;;;;;4.25;3.85;;;;;;;;;;5114223;28;20195;-78
2023/08/19 12:15:58;;;;;;;3.92;3.63;;;;;;;;;;5114095;28;20254;-78
2023/08/19 12:18:25;;;;;;;3.50;3.30;;;;;;;;;;5114280;28;20191;-78
2023/08/19 12:20:53;;;;;;;3.65;3.30;;;;;;;;;;5114325;28;20211;-77
2023/08/19 12:23:20;;;;;;;3.67;3.38;;;;;;;;;;5114114;28;20210;-78
2023/08/19 12:25:50;;;;;;;4.47;3.70;;;;;;;;;;5113981;28;20734;-77
2023/08/19 12:28:19;;;;;;;4.05;3.58;;;;;;;;;;5114361;28;20286;-76
2023/08/19 12:30:45;;;;;;;6.13;3.78;;;;;;;;;;5114182;28;20207;-76
2023/08/19 12:33:13;;;;;;;4.20;3.58;;;;;;;;;;5113914;28;20237;-76
2023/08/19 12:35:41;;;;;;;5.32;3.90;;;;;;;;;;5108448;28;20626;-76
2023/08/19 12:38:09;;;;;;;3.50;3.28;;;;;;;;;;5092653;28;20196;-76
2023/08/19 12:40:37;;;;;;;7.30;3.72;;;;;;;;;;5093254;28;20685;-76
2023/08/19 12:43:04;;;;;;;4.93;3.30;;;;;;;;;;5093328;28;20201;-75
2023/08/19 12:45:32;;;;;;;3.78;3.47;;;;;;;;;;5093635;28;20207;-76
2023/08/19 12:47:59;;;;;;;3.50;3.20;;;;;;;;;;5093890;28;20547;-76
2023/08/19 12:50:26;;;;;;;3.88;3.50;;;;;;;;;;5093392;28;20611;-78
2023/08/19 12:52:52;;;;;;;3.85;3.40;;;;;;;;;;5092919;28;20262;-78
2023/08/19 12:55:20;;;;;;;4.60;3.42;;;;;;;;;;5093586;28;20239;-78
2023/08/19 12:57:47;;;;;;;4.30;3.90;;;;;;;;;;5093243;28;20287;-78
2023/08/19 13:00:15;;;;;;;4.47;3.85;;;;;;;;;;5093181;28;20184;-78
2023/08/19 13:02:43;;;;;;;4.85;4.07;;;;;;;;;;5092849;28;20200;-77
2023/08/19 13:05:11;;;;;;;4.28;3.50;;;;;;;;;;5099701;28;20227;-80
2023/08/19 13:07:37;;;;;;;6.15;3.55;;;;;;;;;;5113288;28;20204;-77
2023/08/19 13:10:06;;;;;;;3.08;2.88;;;;;;;;;;5104952;28;20193;-78
2023/08/19 13:12:33;;;;;;;3.85;3.63;;;;;;;;;;5092534;28;20207;-78
2023/08/19 13:15:00;;;;;;;4.28;3.97;;;;;;;;;;5093152;28;20203;-78
2023/08/19 13:17:27;;;;;;;4.05;3.75;;;;;;;;;;5092635;28;20204;-78
2023/08/19 13:19:55;;;;;;;4.57;4.03;;;;;;;;;;5092873;28;20196;-78
2023/08/19 13:22:23;;;;;;;4.00;3.70;;;;;;;;;;5092583;28;20196;-78
2023/08/19 13:24:50;;;;;;;6.68;4.82;;;;;;;;;;5074214;28;20206;-78
2023/08/19 13:27:17;;;;;;;4.63;3.90;;;;;;;;;;5092664;28;20682;-78
2023/08/19 13:29:44;;;;;;;4.28;3.97;;;;;;;;;;5092623;28;20207;-78
2023/08/19 13:32:11;;;;;;;4.82;3.67;;;;;;;;;;5092736;28;20204;-78
2023/08/19 13:34:38;;;;;;;3.80;3.50;;;;;;;;;;5092528;28;20200;-78
2023/08/19 13:37:07;;;;;;;4.97;4.55;;;;;;;;;;5092896;28;20571;-77
2023/08/19 13:39:35;;;;;;;7.82;3.38;;;;;;;;;;5092190;28;20203;-77
2023/08/19 13:42:02;;;;;;;6.85;4.30;;;;;;;;;;5092238;28;20292;-78
2023/08/19 13:44:31;;;;;;;4.13;3.53;;;;;;;;;;5092733;28;20257;-78
2023/08/19 13:46:58;;;;;;;5.00;3.70;;;;;;;;;;5092529;28;20580;-78
2023/08/19 13:49:25;;;;;;;4.45;4.07;;;;;;;;;;5092679;28;20196;-78
2023/08/19 13:51:54;;;;;;;3.75;3.45;;;;;;;;;;5092446;28;20253;-78
2023/08/19 13:54:22;;;;;;;4.05;3.75;;;;;;;;;;5092078;28;20220;-78
2023/08/19 13:56:51;;;;;;;5.93;3.53;;;;;;;;;;5092096;28;20226;-78
2023/08/19 13:59:17;;;;;;;3.60;3.30;;;;;;;;;;5092994;28;20599;-78
2023/08/19 14:01:44;;;;;;;5.10;3.97;;;;;;;;;;5092909;28;20199;-77
2023/08/19 14:04:11;;;;;;;3.78;2.88;;;;;;;;;;5092565;28;20227;-78
2023/08/19 14:06:38;;;;;;;3.40;3.10;;;;;;;;;;5091880;28;20192;-77
2023/08/19 14:09:05;;;;;;;3.15;2.88;;;;;;;;;;5091930;28;20199;-78
2023/08/19 14:11:33;;;;;;;3.88;3.50;;;;;;;;;;5092095;28;20192;-78
2023/08/19 14:14:00;;;;;;;4.15;3.80;;;;;;;;;;5092205;28;20200;-78
2023/08/19 14:16:29;;;;;;;4.32;3.30;;;;;;;;;;5091921;28;20223;-78
2023/08/19 14:18:57;;;;;;;5.03;3.30;;;;;;;;;;5108753;28;20192;-78
2023/08/19 14:21:25;;;;;;;4.82;3.72;;;;;;;;;;5105993;28;20188;-78
2023/08/19 14:23:52;;;;;;;3.17;2.95;;;;;;;;;;5091665;28;20236;-78
2023/08/19 14:26:19;;;;;;;4.45;3.25;;;;;;;;;;5092314;28;20224;-78
2023/08/19 14:28:48;;;;;;;3.70;3.40;;;;;;;;;;5095840;28;20203;-78
2023/08/19 14:31:15;;;;;;;4.25;3.40;;;;;;;;;;5111160;28;20199;-78
2023/08/19 14:33:44;;;;;;;6.20;4.05;;;;;;;;;;5099390;28;20559;-78
2023/08/19 14:36:10;;;;;;;3.28;2.97;;;;;;;;;;5091792;28;20263;-78
2023/08/19 14:38:38;;;;;;;6.55;4.00;;;;;;;;;;5091477;28;20200;-78
2023/08/19 14:41:06;;;;;;;4.40;3.75;;;;;;;;;;5091888;28;20196;-78
2023/08/19 14:43:33;;;;;;;3.40;3.10;;;;;;;;;;5090362;28;20284;-78
2023/08/19 14:46:01;;;;;;;3.83;3.33;;;;;;;;;;5092154;28;20195;-78